sensor_id;sensor_type;location;lat;lon;timestamp;pressure;altitude;pressure_sealevel;temperature;humidity
39141;BME280;24875;48.436;10.298;2023-03-03T00:01:49;96369.69;;;3.06;100.00
39141;BME280;24875;48.436;10.298;2023-03-03T00:04:17;96372.09;;;3.18;100.00
39141;BME280;24875;48.436;10.298;2023-03-03T00:06:43;96380.16;;;3.15;100.00
39141;BME280;24875;48.436;10.298;2023-03-03T00:09:10;96371.78;;;3.12;100.00
39141;BME280;24875;48.436;10.298;2023-03-03T00:11:36;96370.56;;;3.16;100.00
39141;BME280;24875;48.436;10.298;2023-03-03T00:14:17;96379.66;;;3.31;100.00
39141;BME280;24875;48.436;10.298;2023-03-03T00:16:44;96373.84;;;3.18;100.00
39141;BME280;24875;48.436;10.298;2023-03-03T00:19:14;96374.56;;;3.20;100.00
39141;BME280;24875;48.436;10.298;2023-03-03T00:21:45;96376.56;;;3.37;100.00
39141;BME280;24875;48.436;10.298;2023-03-03T00:24:20;96378.38;;;3.46;100.00
39141;BME280;24875;48.436;10.298;2023-03-03T00:26:48;96386.03;;;3.38;100.00
39141;BME280;24875;48.436;10.298;2023-03-03T00:29:29;96381.50;;;3.40;100.00
39141;BME280;24875;48.436;10.298;2023-03-03T00:32:11;96381.09;;;3.35;100.00
39141;BME280;24875;48.436;10.298;2023-03-03T00:34:42;96380.25;;;3.34;100.00
39141;BME280;24875;48.436;10.298;2023-03-03T00:37:21;96381.94;;;3.45;100.00
39141;BME280;24875;48.436;10.298;2023-03-03T00:39:48;96384.28;;;3.18;100.00
39141;BME280;24875;48.436;10.298;2023-03-03T00:42:16;96383.56;;;3.36;100.00
39141;BME280;24875;48.436;10.298;2023-03-03T00:44:44;96388.47;;;3.30;100.00
39141;BME280;24875;48.436;10.298;2023-03-03T00:47:22;96381.50;;;3.40;100.00
39141;BME280;24875;48.436;10.298;2023-03-03T00:49:50;96382.69;;;3.26;100.00
39141;BME280;24875;48.436;10.298;2023-03-03T00:52:18;96390.53;;;3.36;100.00
39141;BME280;24875;48.436;10.298;2023-03-03T00:54:45;96381.03;;;3.25;100.00
39141;BME280;24875;48.436;10.298;2023-03-03T00:57:12;96380.38;;;3.33;100.00
39141;BME280;24875;48.436;10.298;2023-03-03T00:59:38;96377.19;;;3.29;100.00
39141;BME280;24875;48.436;10.298;2023-03-03T01:02:05;96389.22;;;3.41;100.00
39141;BME280;24875;48.436;10.298;2023-03-03T01:04:32;96392.59;;;3.32;100.00
39141;BME280;24875;48.436;10.298;2023-03-03T01:06:58;96385.75;;;3.41;100.00
39141;BME280;24875;48.436;10.298;2023-03-03T01:09:26;96380.81;;;3.38;100.00
39141;BME280;24875;48.436;10.298;2023-03-03T01:11:53;96377.50;;;3.36;100.00
39141;BME280;24875;48.436;10.298;2023-03-03T01:14:20;96379.97;;;3.37;100.00
39141;BME280;24875;48.436;10.298;2023-03-03T01:16:47;96375.16;;;3.33;100.00
39141;BME280;24875;48.436;10.298;2023-03-03T01:19:14;96374.25;;;3.43;100.00
39141;BME280;24875;48.436;10.298;2023-03-03T01:21:41;96380.59;;;3.50;100.00
39141;BME280;24875;48.436;10.298;2023-03-03T01:24:07;96379.47;;;3.43;100.00
39141;BME280;24875;48.436;10.298;2023-03-03T01:26:35;96385.91;;;3.49;100.00
39141;BME280;24875;48.436;10.298;2023-03-03T01:29:01;96379.66;;;3.31;100.00
39141;BME280;24875;48.436;10.298;2023-03-03T01:31:28;96377.25;;;3.39;100.00
39141;BME280;24875;48.436;10.298;2023-03-03T01:33:54;96377.91;;;3.31;100.00
39141;BME280;24875;48.436;10.298;2023-03-03T01:36:24;96382.50;;;3.48;100.00
39141;BME280;24875;48.436;10.298;2023-03-03T01:38:51;96373.13;;;3.36;100.00
39141;BME280;24875;48.436;10.298;2023-03-03T01:41:18;96370.69;;;3.35;100.00
39141;BME280;24875;48.436;10.298;2023-03-03T01:43:48;96376.22;;;3.51;100.00
39141;BME280;24875;48.436;10.298;2023-03-03T01:46:33;96371.75;;;3.71;100.00
39141;BME280;24875;48.436;10.298;2023-03-03T01:49:05;96365.81;;;3.60;100.00
39141;BME280;24875;48.436;10.298;2023-03-03T01:51:35;96372.97;;;3.67;100.00
39141;BME280;24875;48.436;10.298;2023-03-03T01:54:05;96372.38;;;3.55;100.00
39141;BME280;24875;48.436;10.298;2023-03-03T01:56:36;96373.03;;;3.47;100.00
39141;BME280;24875;48.436;10.298;2023-03-03T01:59:07;96364.06;;;3.70;100.00
39141;BME280;24875;48.436;10.298;2023-03-03T02:01:35;96362.66;;;3.57;100.00
39141;BME280;24875;48.436;10.298;2023-03-03T02:04:02;96358.69;;;3.53;100.00
39141;BME280;24875;48.436;10.298;2023-03-03T02:06:32;96357.81;;;3.43;100.00
39141;BME280;24875;48.436;10.298;2023-03-03T02:09:04;96357.81;;;3.43;100.00
39141;BME280;24875;48.436;10.298;2023-03-03T02:11:35;96359.78;;;3.50;100.00
39141;BME280;24875;48.436;10.298;2023-03-03T02:14:04;96360.31;;;3.54;100.00
39141;BME280;24875;48.436;10.298;2023-03-03T02:16:30;96364.41;;;3.47;100.00
39141;BME280;24875;48.436;10.298;2023-03-03T02:18:57;96362.91;;;3.54;100.00
39141;BME280;24875;48.436;10.298;2023-03-03T02:21:24;96352.13;;;3.58;100.00
39141;BME280;24875;48.436;10.298;2023-03-03T02:23:58;96354.06;;;3.65;100.00
39141;BME280;24875;48.436;10.298;2023-03-03T02:26:28;96351.25;;;3.48;100.00
39141;BME280;24875;48.436;10.298;2023-03-03T02:28:55;96344.78;;;3.43;100.00
39141;BME280;24875;48.436;10.298;2023-03-03T02:31:25;96347.56;;;3.51;100.00
39141;BME280;24875;48.436;10.298;2023-03-03T02:33:52;96353.06;;;3.57;100.00
39141;BME280;24875;48.436;10.298;2023-03-03T02:36:21;96349.66;;;3.66;100.00
39141;BME280;24875;48.436;10.298;2023-03-03T02:38:50;96351.03;;;3.70;100.00
39141;BME280;24875;48.436;10.298;2023-03-03T02:41:28;96344.22;;;3.78;100.00
39141;BME280;24875;48.436;10.298;2023-03-03T02:44:00;96340.31;;;3.63;100.00
39141;BME280;24875;48.436;10.298;2023-03-03T02:46:27;96347.34;;;3.63;100.00
39141;BME280;24875;48.436;10.298;2023-03-03T02:48:54;96344.94;;;3.51;100.00
39141;BME280;24875;48.436;10.298;2023-03-03T02:51:20;96342.78;;;3.56;100.00
39141;BME280;24875;48.436;10.298;2023-03-03T02:53:47;96335.25;;;3.62;100.00
39141;BME280;24875;48.436;10.298;2023-03-03T02:56:13;96340.59;;;3.61;100.00
39141;BME280;24875;48.436;10.298;2023-03-03T02:58:41;96336.50;;;3.67;100.00
39141;BME280;24875;48.436;10.298;2023-03-03T03:01:08;96333.22;;;3.65;100.00
39141;BME280;24875;48.436;10.298;2023-03-03T03:03:34;96328.97;;;3.64;100.00
39141;BME280;24875;48.436;10.298;2023-03-03T03:06:01;96328.25;;;3.62;100.00
39141;BME280;24875;48.436;10.298;2023-03-03T03:08:27;96314.69;;;3.68;100.00
39141;BME280;24875;48.436;10.298;2023-03-03T03:10:54;96322.78;;;3.65;100.00
39141;BME280;24875;48.436;10.298;2023-03-03T03:13:21;96323.59;;;3.66;100.00
39141;BME280;24875;48.436;10.298;2023-03-03T03:15:50;96327.22;;;3.74;100.00
39141;BME280;24875;48.436;10.298;2023-03-03T03:18:16;96330.19;;;3.61;100.00
39141;BME280;24875;48.436;10.298;2023-03-03T03:20:43;96328.00;;;3.65;100.00
39141;BME280;24875;48.436;10.298;2023-03-03T03:23:10;96330.75;;;3.64;100.00
39141;BME280;24875;48.436;10.298;2023-03-03T03:25:37;96337.19;;;3.69;100.00
39141;BME280;24875;48.436;10.298;2023-03-03T03:28:09;96334.16;;;3.64;100.00
39141;BME280;24875;48.436;10.298;2023-03-03T03:30:36;96341.16;;;3.64;100.00
39141;BME280;24875;48.436;10.298;2023-03-03T03:33:04;96342.84;;;3.84;100.00
39141;BME280;24875;48.436;10.298;2023-03-03T03:35:31;96350.47;;;3.66;100.00
39141;BME280;24875;48.436;10.298;2023-03-03T03:37:58;96352.06;;;3.49;100.00
39141;BME280;24875;48.436;10.298;2023-03-03T03:40:25;96357.19;;;3.60;100.00
39141;BME280;24875;48.436;10.298;2023-03-03T03:42:51;96358.56;;;3.63;100.00
39141;BME280;24875;48.436;10.298;2023-03-03T03:45:18;96359.09;;;3.58;100.00
39141;BME280;24875;48.436;10.298;2023-03-03T03:47:45;96358.41;;;3.56;100.00
39141;BME280;24875;48.436;10.298;2023-03-03T03:50:12;96358.19;;;3.68;100.00
39141;BME280;24875;48.436;10.298;2023-03-03T03:52:39;96355.69;;;3.66;100.00
39141;BME280;24875;48.436;10.298;2023-03-03T03:55:08;96355.66;;;3.57;100.00
39141;BME280;24875;48.436;10.298;2023-03-03T03:57:34;96354.84;;;3.57;100.00
39141;BME280;24875;48.436;10.298;2023-03-03T04:00:01;96359.88;;;3.49;100.00
39141;BME280;24875;48.436;10.298;2023-03-03T04:02:28;96353.47;;;3.53;100.00
39141;BME280;24875;48.436;10.298;2023-03-03T04:04:54;96357.97;;;3.51;100.00
39141;BME280;24875;48.436;10.298;2023-03-03T04:07:22;96357.03;;;3.61;100.00
39141;BME280;24875;48.436;10.298;2023-03-03T04:09:49;96354.00;;;3.56;100.00
39141;BME280;24875;48.436;10.298;2023-03-03T04:12:16;96356.47;;;3.48;100.00
39141;BME280;24875;48.436;10.298;2023-03-03T04:14:42;96353.47;;;3.53;100.00
39141;BME280;24875;48.436;10.298;2023-03-03T04:17:12;96345.81;;;3.61;100.00
39141;BME280;24875;48.436;10.298;2023-03-03T04:19:41;96351.84;;;3.61;100.00
39141;BME280;24875;48.436;10.298;2023-03-03T04:22:07;96355.97;;;3.63;100.00
39141;BME280;24875;48.436;10.298;2023-03-03T04:24:35;96360.59;;;3.60;100.00
39141;BME280;24875;48.436;10.298;2023-03-03T04:27:01;96356.25;;;3.61;100.00
39141;BME280;24875;48.436;10.298;2023-03-03T04:29:28;96363.91;;;3.53;100.00
39141;BME280;24875;48.436;10.298;2023-03-03T04:31:54;96355.38;;;3.51;100.00
39141;BME280;24875;48.436;10.298;2023-03-03T04:34:21;96349.88;;;3.54;100.00
39141;BME280;24875;48.436;10.298;2023-03-03T04:36:48;96366.91;;;3.58;100.00
39141;BME280;24875;48.436;10.298;2023-03-03T04:39:14;96357.97;;;3.51;100.00
39141;BME280;24875;48.436;10.298;2023-03-03T04:41:42;96350.47;;;3.66;100.00
39141;BME280;24875;48.436;10.298;2023-03-03T04:44:08;96354.84;;;3.57;100.00
39141;BME280;24875;48.436;10.298;2023-03-03T04:46:35;96351.03;;;3.61;100.00
39141;BME280;24875;48.436;10.298;2023-03-03T04:49:01;96356.53;;;3.67;100.00
39141;BME280;24875;48.436;10.298;2023-03-03T04:51:28;96355.69;;;3.66;100.00
39141;BME280;24875;48.436;10.298;2023-03-03T04:53:55;96358.72;;;3.71;100.00
39141;BME280;24875;48.436;10.298;2023-03-03T04:56:21;96356.41;;;3.78;100.00
39141;BME280;24875;48.436;10.298;2023-03-03T04:58:49;96354.50;;;3.80;100.00
39141;BME280;24875;48.436;10.298;2023-03-03T05:01:16;96359.69;;;3.70;100.00
39141;BME280;24875;48.436;10.298;2023-03-03T05:03:44;96368.72;;;3.66;100.00
39141;BME280;24875;48.436;10.298;2023-03-03T05:06:10;96369.41;;;3.68;100.00
39141;BME280;24875;48.436;10.298;2023-03-03T05:08:37;96362.97;;;3.72;100.00
39141;BME280;24875;48.436;10.298;2023-03-03T05:11:04;96365.06;;;3.78;100.00
39141;BME280;24875;48.436;10.298;2023-03-03T05:13:31;96369.72;;;3.75;100.00
39141;BME280;24875;48.436;10.298;2023-03-03T05:15:59;96363.56;;;3.76;100.00
39141;BME280;24875;48.436;10.298;2023-03-03T05:18:26;96368.91;;;3.74;100.00
39141;BME280;24875;48.436;10.298;2023-03-03T05:20:53;96368.34;;;3.71;100.00
39141;BME280;24875;48.436;10.298;2023-03-03T05:23:20;96369.16;;;3.71;100.00
39141;BME280;24875;48.436;10.298;2023-03-03T05:25:47;96356.69;;;3.75;100.00
39141;BME280;24875;48.436;10.298;2023-03-03T05:28:14;96370.38;;;3.67;100.00
39141;BME280;24875;48.436;10.298;2023-03-03T05:30:40;96369.41;;;3.68;100.00
39141;BME280;24875;48.436;10.298;2023-03-03T05:33:11;96379.53;;;3.62;100.00
39141;BME280;24875;48.436;10.298;2023-03-03T05:35:38;96379.53;;;3.62;100.00
39141;BME280;24875;48.436;10.298;2023-03-03T05:38:05;96384.47;;;3.56;100.00
39141;BME280;24875;48.436;10.298;2023-03-03T05:40:31;96383.75;;;3.54;100.00
39141;BME280;24875;48.436;10.298;2023-03-03T05:42:58;96383.88;;;3.43;100.00
39141;BME280;24875;48.436;10.298;2023-03-03T05:45:25;96381.16;;;3.54;100.00
39141;BME280;24875;48.436;10.298;2023-03-03T05:47:52;96389.41;;;3.59;100.00
39141;BME280;24875;48.436;10.298;2023-03-03T05:50:21;96390.91;;;3.61;100.00
39141;BME280;24875;48.436;10.298;2023-03-03T05:52:48;96388.81;;;3.46;100.00
39141;BME280;24875;48.436;10.298;2023-03-03T05:55:15;96387.63;;;3.59;100.00
39141;BME280;24875;48.436;10.298;2023-03-03T05:57:43;96393.38;;;3.62;100.00
39141;BME280;24875;48.436;10.298;2023-03-03T06:00:10;96397.50;;;3.65;100.00
39141;BME280;24875;48.436;10.298;2023-03-03T06:02:37;96401.56;;;3.49;100.00
39141;BME280;24875;48.436;10.298;2023-03-03T06:05:05;96413.28;;;3.63;100.00
39141;BME280;24875;48.436;10.298;2023-03-03T06:07:33;96403.00;;;3.62;100.00
39141;BME280;24875;48.436;10.298;2023-03-03T06:09:59;96409.44;;;3.67;100.00
39141;BME280;24875;48.436;10.298;2023-03-03T06:12:26;96411.75;;;3.61;100.00
39141;BME280;24875;48.436;10.298;2023-03-03T06:14:52;96406.97;;;3.57;100.00
39141;BME280;24875;48.436;10.298;2023-03-03T06:17:19;96411.31;;;3.56;100.00
39141;BME280;24875;48.436;10.298;2023-03-03T06:19:45;96408.06;;;3.63;100.00
39141;BME280;24875;48.436;10.298;2023-03-03T06:22:12;96411.09;;;3.59;100.00
39141;BME280;24875;48.436;10.298;2023-03-03T06:24:40;96413.19;;;3.74;100.00
39141;BME280;24875;48.436;10.298;2023-03-03T06:27:08;96416.59;;;3.65;100.00
39141;BME280;24875;48.436;10.298;2023-03-03T06:29:35;96421.81;;;3.65;100.00
39141;BME280;24875;48.436;10.298;2023-03-03T06:32:01;96425.94;;;3.68;100.00
39141;BME280;24875;48.436;10.298;2023-03-03T06:34:28;96425.09;;;3.67;100.00
39141;BME280;24875;48.436;10.298;2023-03-03T06:36:55;96425.53;;;3.72;100.00
39141;BME280;24875;48.436;10.298;2023-03-03T06:39:21;96430.00;;;3.61;100.00
39141;BME280;24875;48.436;10.298;2023-03-03T06:41:49;96433.34;;;3.72;100.00
39141;BME280;24875;48.436;10.298;2023-03-03T06:44:16;96435.78;;;3.64;100.00
39141;BME280;24875;48.436;10.298;2023-03-03T06:46:42;96429.91;;;3.72;100.00
39141;BME280;24875;48.436;10.298;2023-03-03T06:49:09;96436.09;;;3.80;100.00
39141;BME280;24875;48.436;10.298;2023-03-03T06:51:36;96440.53;;;3.89;100.00
39141;BME280;24875;48.436;10.298;2023-03-03T06:54:09;96446.28;;;3.83;100.00
39141;BME280;24875;48.436;10.298;2023-03-03T06:56:36;96446.53;;;3.80;100.00
39141;BME280;24875;48.436;10.298;2023-03-03T06:59:11;96450.16;;;3.89;100.00
39141;BME280;24875;48.436;10.298;2023-03-03T07:01:37;96455.13;;;3.71;100.00
39141;BME280;24875;48.436;10.298;2023-03-03T07:04:13;96451.06;;;3.78;100.00
39141;BME280;24875;48.436;10.298;2023-03-03T07:06:40;96448.97;;;3.72;100.00
39141;BME280;24875;48.436;10.298;2023-03-03T07:09:21;96459.75;;;3.88;100.00
39141;BME280;24875;48.436;10.298;2023-03-03T07:11:48;96462.47;;;3.87;100.00
39141;BME280;24875;48.436;10.298;2023-03-03T07:14:18;96464.34;;;4.05;100.00
39141;BME280;24875;48.436;10.298;2023-03-03T07:16:45;96467.22;;;4.02;100.00
39141;BME280;24875;48.436;10.298;2023-03-03T07:19:17;96469.19;;;4.19;100.00
39141;BME280;24875;48.436;10.298;2023-03-03T07:21:44;96470.66;;;4.12;100.00
39141;BME280;24875;48.436;10.298;2023-03-03T07:24:18;96468.06;;;4.12;100.00
39141;BME280;24875;48.436;10.298;2023-03-03T07:26:47;96473.53;;;4.00;100.00
39141;BME280;24875;48.436;10.298;2023-03-03T07:29:21;96475.78;;;4.23;100.00
39141;BME280;24875;48.436;10.298;2023-03-03T07:31:49;96477.44;;;4.24;100.00
39141;BME280;24875;48.436;10.298;2023-03-03T07:34:19;96475.41;;;4.37;100.00
39141;BME280;24875;48.436;10.298;2023-03-03T07:36:48;96477.00;;;4.19;100.00
39141;BME280;24875;48.436;10.298;2023-03-03T07:39:25;96470.28;;;4.17;100.00
39141;BME280;24875;48.436;10.298;2023-03-03T07:41:55;96471.13;;;4.26;99.82
39141;BME280;24875;48.436;10.298;2023-03-03T07:44:30;96475.25;;;4.29;99.97
39141;BME280;24875;48.436;10.298;2023-03-03T07:47:14;96466.59;;;4.19;100.00
39141;BME280;24875;48.436;10.298;2023-03-03T07:49:43;96470.84;;;4.20;100.00
39141;BME280;24875;48.436;10.298;2023-03-03T07:52:23;96466.44;;;4.21;100.00
39141;BME280;24875;48.436;10.298;2023-03-03T07:54:52;96467.44;;;4.29;100.00
39141;BME280;24875;48.436;10.298;2023-03-03T07:57:22;96479.78;;;4.36;100.00
39141;BME280;24875;48.436;10.298;2023-03-03T07:59:52;96482.03;;;4.50;100.00
39141;BME280;24875;48.436;10.298;2023-03-03T08:02:33;96488.22;;;4.59;99.68
39141;BME280;24875;48.436;10.298;2023-03-03T08:05:21;96486.31;;;4.70;98.62
39141;BME280;24875;48.436;10.298;2023-03-03T08:07:50;96479.16;;;4.53;99.67
39141;BME280;24875;48.436;10.298;2023-03-03T08:10:30;96484.81;;;4.58;99.34
39141;BME280;24875;48.436;10.298;2023-03-03T08:13:04;96488.50;;;4.65;98.93
39141;BME280;24875;48.436;10.298;2023-03-03T08:15:36;96489.22;;;4.77;99.65
39141;BME280;24875;48.436;10.298;2023-03-03T08:18:15;96479.31;;;4.89;98.86
39141;BME280;24875;48.436;10.298;2023-03-03T08:20:45;96476.97;;;4.77;98.46
39141;BME280;24875;48.436;10.298;2023-03-03T08:23:14;96472.31;;;4.81;98.25
39141;BME280;24875;48.436;10.298;2023-03-03T08:25:41;96479.75;;;4.85;97.54
39141;BME280;24875;48.436;10.298;2023-03-03T08:28:08;96479.63;;;4.86;97.48
39141;BME280;24875;48.436;10.298;2023-03-03T08:30:37;96478.94;;;4.94;96.49
39141;BME280;24875;48.436;10.298;2023-03-03T08:33:03;96489.47;;;4.92;97.46
39141;BME280;24875;48.436;10.298;2023-03-03T08:35:30;96489.38;;;4.94;96.57
39141;BME280;24875;48.436;10.298;2023-03-03T08:37:56;96489.75;;;4.71;97.86
39141;BME280;24875;48.436;10.298;2023-03-03T08:40:23;96481.63;;;4.64;98.20
39141;BME280;24875;48.436;10.298;2023-03-03T08:42:49;96481.91;;;4.71;97.19
39141;BME280;24875;48.436;10.298;2023-03-03T08:45:16;96478.63;;;4.78;97.11
39141;BME280;24875;48.436;10.298;2023-03-03T08:47:44;96476.97;;;4.68;97.63
39141;BME280;24875;48.436;10.298;2023-03-03T08:50:11;96481.53;;;4.84;97.25
39141;BME280;24875;48.436;10.298;2023-03-03T08:52:39;96483.16;;;4.95;96.68
39141;BME280;24875;48.436;10.298;2023-03-03T08:55:06;96478.78;;;5.14;95.61
39141;BME280;24875;48.436;10.298;2023-03-03T08:57:33;96480.69;;;4.75;96.63
39141;BME280;24875;48.436;10.298;2023-03-03T08:59:59;96487.97;;;4.90;96.98
39141;BME280;24875;48.436;10.298;2023-03-03T09:02:25;96488.38;;;4.67;97.83
39141;BME280;24875;48.436;10.298;2023-03-03T09:04:53;96485.53;;;4.98;95.88
39141;BME280;24875;48.436;10.298;2023-03-03T09:07:20;96486.75;;;4.75;97.20
39141;BME280;24875;48.436;10.298;2023-03-03T09:09:46;96485.78;;;4.85;97.22
39141;BME280;24875;48.436;10.298;2023-03-03T09:12:15;96480.28;;;5.26;94.59
39141;BME280;24875;48.436;10.298;2023-03-03T09:14:43;96490.44;;;5.10;95.40
39141;BME280;24875;48.436;10.298;2023-03-03T09:17:23;96492.63;;;5.43;93.63
39141;BME280;24875;48.436;10.298;2023-03-03T09:19:50;96495.13;;;5.35;93.89
39141;BME280;24875;48.436;10.298;2023-03-03T09:22:21;96506.13;;;5.39;94.64
39141;BME280;24875;48.436;10.298;2023-03-03T09:24:49;96507.19;;;5.64;94.52
39141;BME280;24875;48.436;10.298;2023-03-03T09:27:21;96506.50;;;5.62;92.88
39141;BME280;24875;48.436;10.298;2023-03-03T09:29:50;96512.44;;;5.55;92.68
39141;BME280;24875;48.436;10.298;2023-03-03T09:32:25;96517.06;;;5.89;91.00
39141;BME280;24875;48.436;10.298;2023-03-03T09:34:54;96520.50;;;5.80;90.92
39141;BME280;24875;48.436;10.298;2023-03-03T09:37:23;96538.94;;;5.98;90.64
39141;BME280;24875;48.436;10.298;2023-03-03T09:39:53;96530.78;;;6.01;89.90
39141;BME280;24875;48.436;10.298;2023-03-03T09:42:41;96530.78;;;6.01;90.92
39141;BME280;24875;48.436;10.298;2023-03-03T09:45:30;96526.97;;;6.31;90.66
39141;BME280;24875;48.436;10.298;2023-03-03T09:48:16;96525.47;;;6.29;89.72
39141;BME280;24875;48.436;10.298;2023-03-03T09:50:55;96524.84;;;6.44;87.44
39141;BME280;24875;48.436;10.298;2023-03-03T09:53:38;96531.72;;;6.45;87.08
39141;BME280;24875;48.436;10.298;2023-03-03T09:56:12;96536.06;;;6.54;87.61
39141;BME280;24875;48.436;10.298;2023-03-03T09:58:54;96531.59;;;6.47;88.19
39141;BME280;24875;48.436;10.298;2023-03-03T10:01:45;96533.34;;;6.56;87.66
39141;BME280;24875;48.436;10.298;2023-03-03T10:04:23;96530.97;;;6.62;87.28
39141;BME280;24875;48.436;10.298;2023-03-03T10:06:57;96525.97;;;6.42;88.11
39141;BME280;24875;48.436;10.298;2023-03-03T10:09:48;96537.56;;;6.30;88.20
39141;BME280;24875;48.436;10.298;2023-03-03T10:12:26;96534.22;;;6.47;86.99
39141;BME280;24875;48.436;10.298;2023-03-03T10:15:03;96523.91;;;6.63;85.08
39141;BME280;24875;48.436;10.298;2023-03-03T10:17:47;96530.97;;;6.79;86.64
39141;BME280;24875;48.436;10.298;2023-03-03T10:20:28;96529.16;;;7.07;86.26
39141;BME280;24875;48.436;10.298;2023-03-03T10:23:07;96531.09;;;7.05;82.98
39141;BME280;24875;48.436;10.298;2023-03-03T10:25:38;96537.06;;;6.97;84.53
39141;BME280;24875;48.436;10.298;2023-03-03T10:28:23;96533.56;;;6.89;83.38
39141;BME280;24875;48.436;10.298;2023-03-03T10:30:59;96545.22;;;6.94;83.75
39141;BME280;24875;48.436;10.298;2023-03-03T10:33:32;96545.53;;;6.91;86.20
39141;BME280;24875;48.436;10.298;2023-03-03T10:36:14;96542.75;;;7.10;84.21
39141;BME280;24875;48.436;10.298;2023-03-03T10:38:54;96539.88;;;7.13;82.50
39141;BME280;24875;48.436;10.298;2023-03-03T10:41:47;96543.06;;;7.42;85.03
39141;BME280;24875;48.436;10.298;2023-03-03T10:44:29;96547.28;;;7.52;84.70
39141;BME280;24875;48.436;10.298;2023-03-03T10:47:18;96545.16;;;7.56;84.07
39141;BME280;24875;48.436;10.298;2023-03-03T10:49:57;96550.25;;;7.23;82.90
39141;BME280;24875;48.436;10.298;2023-03-03T10:52:33;96554.78;;;7.47;81.52
39141;BME280;24875;48.436;10.298;2023-03-03T10:55:16;96548.31;;;7.59;82.77
39141;BME280;24875;48.436;10.298;2023-03-03T10:57:54;96549.00;;;7.44;82.31
39141;BME280;24875;48.436;10.298;2023-03-03T11:00:26;96539.25;;;7.54;82.47
39141;BME280;24875;48.436;10.298;2023-03-03T11:03:17;96545.47;;;7.70;83.63
39141;BME280;24875;48.436;10.298;2023-03-03T11:05:56;96544.69;;;7.78;81.87
39141;BME280;24875;48.436;10.298;2023-03-03T11:08:29;96539.31;;;7.79;83.21
39141;BME280;24875;48.436;10.298;2023-03-03T11:11:06;96537.28;;;7.73;81.32
39141;BME280;24875;48.436;10.298;2023-03-03T11:13:41;96538.38;;;7.88;81.40
39141;BME280;24875;48.436;10.298;2023-03-03T11:16:38;96538.84;;;8.26;79.57
39141;BME280;24875;48.436;10.298;2023-03-03T11:19:16;96538.94;;;8.17;80.17
39141;BME280;24875;48.436;10.298;2023-03-03T11:21:50;96538.31;;;8.23;79.14
39141;BME280;24875;48.436;10.298;2023-03-03T11:24:30;96536.22;;;8.09;81.07
39141;BME280;24875;48.436;10.298;2023-03-03T11:27:07;96537.72;;;8.11;82.07
39141;BME280;24875;48.436;10.298;2023-03-03T11:29:56;96533.41;;;8.28;77.59
39141;BME280;24875;48.436;10.298;2023-03-03T11:32:33;96543.56;;;8.23;77.76
39141;BME280;24875;48.436;10.298;2023-03-03T11:35:21;96531.09;;;8.25;78.46
39141;BME280;24875;48.436;10.298;2023-03-03T11:37:56;96529.81;;;8.29;75.81
39141;BME280;24875;48.436;10.298;2023-03-03T11:40:28;96535.63;;;8.40;75.25
39141;BME280;24875;48.436;10.298;2023-03-03T11:43:00;96533.41;;;8.61;76.94
39141;BME280;24875;48.436;10.298;2023-03-03T11:45:36;96533.09;;;8.64;75.67
39141;BME280;24875;48.436;10.298;2023-03-03T11:48:11;96520.81;;;8.72;77.25
39141;BME280;24875;48.436;10.298;2023-03-03T11:50:44;96516.69;;;8.62;73.23
39141;BME280;24875;48.436;10.298;2023-03-03T11:53:25;96511.28;;;8.71;72.59
39141;BME280;24875;48.436;10.298;2023-03-03T11:55:56;96511.50;;;8.45;72.42
39141;BME280;24875;48.436;10.298;2023-03-03T11:58:28;96508.88;;;8.86;71.26
39141;BME280;24875;48.436;10.298;2023-03-03T12:00:59;96511.28;;;8.71;69.60
39141;BME280;24875;48.436;10.298;2023-03-03T12:03:36;96501.69;;;8.47;69.61
39141;BME280;24875;48.436;10.298;2023-03-03T12:06:13;96510.06;;;8.91;69.11
39141;BME280;24875;48.436;10.298;2023-03-03T12:09:00;96502.88;;;9.09;67.83
39141;BME280;24875;48.436;10.298;2023-03-03T12:11:34;96505.44;;;8.93;70.66
39141;BME280;24875;48.436;10.298;2023-03-03T12:14:12;96509.09;;;9.00;69.14
39141;BME280;24875;48.436;10.298;2023-03-03T12:16:51;96508.75;;;9.03;66.16
39141;BME280;24875;48.436;10.298;2023-03-03T12:19:31;96516.88;;;8.68;67.92
39141;BME280;24875;48.436;10.298;2023-03-03T12:22:20;96508.75;;;9.03;67.03
39141;BME280;24875;48.436;10.298;2023-03-03T12:25:04;96509.00;;;8.68;67.21
39141;BME280;24875;48.436;10.298;2023-03-03T12:27:39;96504.00;;;8.57;67.87
39141;BME280;24875;48.436;10.298;2023-03-03T12:30:15;96497.06;;;8.90;67.06
39141;BME280;24875;48.436;10.298;2023-03-03T12:32:59;96494.63;;;9.04;65.56
39141;BME280;24875;48.436;10.298;2023-03-03T12:35:31;96491.31;;;8.94;65.40
39141;BME280;24875;48.436;10.298;2023-03-03T12:38:04;96486.75;;;9.04;64.54
39141;BME280;24875;48.436;10.298;2023-03-03T12:40:40;96492.97;;;8.87;64.58
39141;BME280;24875;48.436;10.298;2023-03-03T12:43:19;96492.38;;;8.68;66.76
39141;BME280;24875;48.436;10.298;2023-03-03T12:45:55;96488.25;;;9.07;66.42
39141;BME280;24875;48.436;10.298;2023-03-03T12:48:33;96483.28;;;9.04;64.76
39141;BME280;24875;48.436;10.298;2023-03-03T12:51:09;96474.47;;;9.20;66.31
39141;BME280;24875;48.436;10.298;2023-03-03T12:53:59;96474.75;;;9.02;66.51
39141;BME280;24875;48.436;10.298;2023-03-03T12:56:34;96483.34;;;8.62;66.47
39141;BME280;24875;48.436;10.298;2023-03-03T12:59:09;96472.22;;;8.68;65.96
39141;BME280;24875;48.436;10.298;2023-03-03T13:01:51;96476.88;;;9.06;66.36
39141;BME280;24875;48.436;10.298;2023-03-03T13:04:32;96463.09;;;9.04;65.18
39141;BME280;24875;48.436;10.298;2023-03-03T13:07:05;96467.03;;;9.24;65.00
39141;BME280;24875;48.436;10.298;2023-03-03T13:09:54;96483.78;;;9.15;64.65
39141;BME280;24875;48.436;10.298;2023-03-03T13:12:31;96475.94;;;9.39;62.21
39141;BME280;24875;48.436;10.298;2023-03-03T13:15:07;96474.28;;;9.62;61.51
39141;BME280;24875;48.436;10.298;2023-03-03T13:17:38;96474.59;;;9.74;62.33